Glenrothes, United Kingdom
Current Conditions -  °F | °C
As of 3:50 PM on Friday 24 Oct 2014 (Local Time) from EGQL Reporting Station
Few Clouds Few Clouds  
Wind Chill: 52°   Ceiling: Unl
Heat Index: 52°   Visibility: 6mi
Dew Point: 41°   Wind: 18mph
Humidity: 67%   Direction: 250°WSW
Pressure: 29.68"   Gusts: NA
Location:  56.2°N, 3.17°W
Report Text: EGQL 241450Z AUTO 25016KT 9999 FEW027/// 11/05 Q1005
Loading
Personal Weather Stations






























Interactive Weather Map
Tropical Storm Tracking
New forecast layout! Learn more

10-Day Weather Forecast

Advertisements
Track Severe Weather on mobile